Time;durP1;ratioP1;P1;durP2;ratioP2;P2;SDS_P1;SDS_P2;PMS_P1;PMS_P2;Temp;Humidity;BMP_temperature;BMP_pressure;BME280_temperature;BME280_humidity;BME280_pressure;Samples;Min_cycle;Max_cycle;Signal;HPM_P1;HPM_P2
2023/03/04 00:01:40;;;;;;;27.27;15.67;;;;;;;;;;4993320;28;20417;-72
2023/03/04 00:04:06;;;;;;;42.07;21.67;;;;;;;;;;4993650;28;20501;-71
2023/03/04 00:06:32;;;;;;;31.50;18.00;;;;;;;;;;4993473;28;20550;-71
2023/03/04 00:08:58;;;;;;;30.57;19.47;;;;;;;;;;4993235;28;20416;-71
2023/03/04 00:11:25;;;;;;;28.53;17.33;;;;;;;;;;4993741;28;20810;-71
2023/03/04 00:13:51;;;;;;;33.83;19.07;;;;;;;;;;4993482;28;20425;-72
2023/03/04 00:16:17;;;;;;;31.40;19.67;;;;;;;;;;4995139;28;20548;-72
2023/03/04 00:18:42;;;;;;;38.73;18.30;;;;;;;;;;4996896;28;20884;-71
2023/03/04 00:21:08;;;;;;;35.27;18.90;;;;;;;;;;4996608;28;20425;-72
2023/03/04 00:23:34;;;;;;;32.73;17.80;;;;;;;;;;4996560;28;20508;-72
2023/03/04 00:26:00;;;;;;;30.37;16.57;;;;;;;;;;4996746;28;20468;-71
2023/03/04 00:28:26;;;;;;;28.50;17.10;;;;;;;;;;4996829;28;20416;-71
2023/03/04 00:30:52;;;;;;;30.40;17.10;;;;;;;;;;4996722;28;20464;-71
2023/03/04 00:33:18;;;;;;;22.90;15.47;;;;;;;;;;4996485;28;20465;-71
2023/03/04 00:35:45;;;;;;;39.23;19.10;;;;;;;;;;4997053;28;20873;-71
2023/03/04 00:38:10;;;;;;;34.87;16.87;;;;;;;;;;4996601;28;20421;-71
2023/03/04 00:40:36;;;;;;;34.73;19.03;;;;;;;;;;4996774;28;20421;-71
2023/03/04 00:43:02;;;;;;;31.37;18.50;;;;;;;;;;4994671;28;20476;-72
2023/03/04 00:45:28;;;;;;;36.13;18.53;;;;;;;;;;4996222;28;20421;-71
2023/03/04 00:47:54;;;;;;;34.67;19.00;;;;;;;;;;4995963;28;20433;-71
2023/03/04 00:50:20;;;;;;;33.20;18.67;;;;;;;;;;4995944;28;20606;-72
2023/03/04 00:52:46;;;;;;;36.10;16.53;;;;;;;;;;4996022;28;20425;-71
2023/03/04 00:55:12;;;;;;;25.47;17.27;;;;;;;;;;4996148;28;20457;-72
2023/03/04 00:57:38;;;;;;;34.13;17.43;;;;;;;;;;4996057;28;20425;-71
2023/03/04 01:00:05;;;;;;;33.87;19.10;;;;;;;;;;4996142;28;20449;-71
2023/03/04 01:02:30;;;;;;;26.63;16.10;;;;;;;;;;4995746;28;20951;-71
2023/03/04 01:04:56;;;;;;;33.07;20.03;;;;;;;;;;4995980;28;20475;-71
2023/03/04 01:07:22;;;;;;;32.70;18.00;;;;;;;;;;4995575;28;20512;-72
2023/03/04 01:09:48;;;;;;;33.43;19.63;;;;;;;;;;4995733;28;20418;-71
2023/03/04 01:12:14;;;;;;;37.70;20.13;;;;;;;;;;4995730;28;20421;-71
2023/03/04 01:14:40;;;;;;;37.43;21.67;;;;;;;;;;4995684;28;20414;-71
2023/03/04 01:17:06;;;;;;;36.13;19.73;;;;;;;;;;4995565;28;20751;-71
2023/03/04 01:19:32;;;;;;;33.00;20.00;;;;;;;;;;4995784;28;20785;-72
2023/03/04 01:21:58;;;;;;;34.00;19.30;;;;;;;;;;4996237;28;20429;-72
2023/03/04 01:24:24;;;;;;;43.10;23.57;;;;;;;;;;4995680;28;20763;-71
2023/03/04 01:26:50;;;;;;;31.53;18.67;;;;;;;;;;4994754;28;20830;-70
2023/03/04 01:29:17;;;;;;;32.67;19.60;;;;;;;;;;4993614;28;20772;-70
2023/03/04 01:31:43;;;;;;;30.50;16.80;;;;;;;;;;4995305;28;20465;-70
2023/03/04 01:34:09;;;;;;;33.23;18.40;;;;;;;;;;4995384;28;20464;-70
2023/03/04 01:36:35;;;;;;;33.63;19.60;;;;;;;;;;4993960;28;20437;-70
2023/03/04 01:39:01;;;;;;;39.40;19.93;;;;;;;;;;4995129;28;20432;-71
2023/03/04 01:41:27;;;;;;;34.70;20.13;;;;;;;;;;4995408;28;20479;-70
2023/03/04 01:43:59;;;;;;;31.73;20.80;;;;;;;;;;4995086;28;20505;-71
2023/03/04 01:46:25;;;;;;;32.20;20.00;;;;;;;;;;4995208;28;20934;-70
2023/03/04 01:48:51;;;;;;;31.57;18.13;;;;;;;;;;4995215;28;20910;-71
2023/03/04 01:51:18;;;;;;;34.83;19.43;;;;;;;;;;4995218;28;20905;-71
2023/03/04 01:53:45;;;;;;;31.53;19.37;;;;;;;;;;4995203;28;20428;-70
2023/03/04 01:56:14;;;;;;;33.67;19.30;;;;;;;;;;4995096;28;20425;-71
2023/03/04 01:58:40;;;;;;;45.23;18.53;;;;;;;;;;4994942;28;20452;-70
2023/03/04 02:01:06;;;;;;;28.80;17.67;;;;;;;;;;4994637;28;20468;-70
2023/03/04 02:03:32;;;;;;;31.80;18.70;;;;;;;;;;4995022;28;20840;-70
2023/03/04 02:05:58;;;;;;;29.90;18.00;;;;;;;;;;4994519;28;21016;-70
2023/03/04 02:08:24;;;;;;;32.07;17.90;;;;;;;;;;4994584;28;20444;-70
2023/03/04 02:10:50;;;;;;;28.57;18.23;;;;;;;;;;4994428;28;20441;-71
2023/03/04 02:13:17;;;;;;;30.77;16.80;;;;;;;;;;4993353;28;20461;-71
2023/03/04 02:15:44;;;;;;;30.40;17.37;;;;;;;;;;4994527;28;20409;-70
2023/03/04 02:18:15;;;;;;;40.17;18.53;;;;;;;;;;4993530;28;20433;-70
2023/03/04 02:20:47;;;;;;;26.93;17.17;;;;;;;;;;4994819;28;20427;-70
2023/03/04 02:23:24;;;;;;;29.17;17.83;;;;;;;;;;4993128;28;20425;-70
2023/03/04 02:25:52;;;;;;;28.73;18.33;;;;;;;;;;4994613;28;20465;-71
2023/03/04 02:28:18;;;;;;;32.37;17.63;;;;;;;;;;4992925;28;20421;-71
2023/03/04 02:30:44;;;;;;;33.60;17.87;;;;;;;;;;4994341;28;20507;-70
2023/03/04 02:33:14;;;;;;;34.63;19.17;;;;;;;;;;4994227;28;20421;-71
2023/03/04 02:35:40;;;;;;;28.10;17.97;;;;;;;;;;4994439;28;20421;-70
2023/03/04 02:38:06;;;;;;;27.37;17.10;;;;;;;;;;4994350;28;20433;-70
2023/03/04 02:40:32;;;;;;;30.67;18.17;;;;;;;;;;4994008;28;20575;-71
2023/03/04 02:42:59;;;;;;;31.13;18.63;;;;;;;;;;4994282;28;20473;-70
2023/03/04 02:45:31;;;;;;;32.90;19.83;;;;;;;;;;4992692;28;20461;-71
2023/03/04 02:47:58;;;;;;;39.20;19.20;;;;;;;;;;4994269;28;20455;-70
2023/03/04 02:50:25;;;;;;;37.87;19.60;;;;;;;;;;4993963;28;20489;-71
2023/03/04 02:52:51;;;;;;;26.17;17.57;;;;;;;;;;4994200;28;20433;-70
2023/03/04 02:55:17;;;;;;;32.33;17.70;;;;;;;;;;4994405;28;20423;-71
2023/03/04 02:57:43;;;;;;;34.63;18.20;;;;;;;;;;4994208;28;20509;-71
2023/03/04 03:00:09;;;;;;;32.57;16.30;;;;;;;;;;4993769;28;20413;-71
2023/03/04 03:02:35;;;;;;;36.30;19.07;;;;;;;;;;4993843;28;20500;-70
2023/03/04 03:05:01;;;;;;;30.60;17.53;;;;;;;;;;4993741;28;20456;-70
2023/03/04 03:07:27;;;;;;;30.50;19.13;;;;;;;;;;4993748;28;20477;-71
2023/03/04 03:09:53;;;;;;;30.93;17.70;;;;;;;;;;4993754;28;20417;-71
2023/03/04 03:12:19;;;;;;;30.70;18.83;;;;;;;;;;4993787;28;20421;-70
2023/03/04 03:14:45;;;;;;;35.57;18.80;;;;;;;;;;4993711;28;20459;-70
2023/03/04 03:17:11;;;;;;;26.97;17.40;;;;;;;;;;4993703;28;20426;-71
2023/03/04 03:19:37;;;;;;;27.70;17.77;;;;;;;;;;4994207;28;20416;-70
2023/03/04 03:22:03;;;;;;;30.60;18.97;;;;;;;;;;4994286;28;20421;-70
2023/03/04 03:24:29;;;;;;;29.70;17.00;;;;;;;;;;4993911;28;20413;-70
2023/03/04 03:26:55;;;;;;;26.70;17.37;;;;;;;;;;4993836;28;20477;-70
2023/03/04 03:29:21;;;;;;;35.73;17.20;;;;;;;;;;4992425;28;20420;-71
2023/03/04 03:31:47;;;;;;;33.20;17.07;;;;;;;;;;4993635;28;20516;-70
2023/03/04 03:34:13;;;;;;;29.80;16.90;;;;;;;;;;4993560;28;20471;-71
2023/03/04 03:36:38;;;;;;;30.63;17.33;;;;;;;;;;4993776;28;20421;-70
2023/03/04 03:39:04;;;;;;;29.37;15.57;;;;;;;;;;4993548;28;20416;-71
2023/03/04 03:41:30;;;;;;;21.73;14.27;;;;;;;;;;4993818;28;20429;-70
2023/03/04 03:43:58;;;;;;;31.07;16.17;;;;;;;;;;4993358;28;20464;-70
2023/03/04 03:46:24;;;;;;;26.63;16.00;;;;;;;;;;4993377;28;21053;-71
2023/03/04 03:48:50;;;;;;;27.77;16.50;;;;;;;;;;4993666;28;20504;-71
2023/03/04 03:51:15;;;;;;;24.70;15.00;;;;;;;;;;4994950;28;20936;-70
2023/03/04 03:53:41;;;;;;;30.33;16.97;;;;;;;;;;4995991;28;20949;-71
2023/03/04 03:56:07;;;;;;;28.07;17.33;;;;;;;;;;4997394;28;20897;-70
2023/03/04 03:58:33;;;;;;;26.37;16.10;;;;;;;;;;4997362;28;20819;-71
2023/03/04 04:00:59;;;;;;;29.10;16.07;;;;;;;;;;4997005;28;20412;-71
2023/03/04 04:03:25;;;;;;;26.30;17.20;;;;;;;;;;4997259;28;20464;-70
2023/03/04 04:05:51;;;;;;;31.00;17.10;;;;;;;;;;4997085;28;20460;-71
2023/03/04 04:08:17;;;;;;;27.10;16.50;;;;;;;;;;4997140;28;20992;-70
2023/03/04 04:10:44;;;;;;;25.00;16.40;;;;;;;;;;4997040;28;20444;-71
2023/03/04 04:13:10;;;;;;;18.73;13.93;;;;;;;;;;4997123;28;20431;-71
2023/03/04 04:15:37;;;;;;;23.10;14.30;;;;;;;;;;4996997;28;20472;-71
2023/03/04 04:18:03;;;;;;;23.07;14.20;;;;;;;;;;4997079;28;20468;-71
2023/03/04 04:20:29;;;;;;;20.43;13.47;;;;;;;;;;4996837;28;20447;-70
2023/03/04 04:22:55;;;;;;;23.87;14.60;;;;;;;;;;4995397;28;20452;-71
2023/03/04 04:25:21;;;;;;;22.17;13.90;;;;;;;;;;4996505;28;20428;-71
2023/03/04 04:27:47;;;;;;;19.13;13.03;;;;;;;;;;4996569;28;20933;-71
2023/03/04 04:30:13;;;;;;;21.23;13.47;;;;;;;;;;4995276;28;20432;-71
2023/03/04 04:32:39;;;;;;;24.20;12.60;;;;;;;;;;4997032;28;20503;-70
2023/03/04 04:35:07;;;;;;;22.63;12.83;;;;;;;;;;4996938;28;20465;-70
2023/03/04 04:37:33;;;;;;;26.60;12.70;;;;;;;;;;4996671;28;20452;-70
2023/03/04 04:39:59;;;;;;;21.30;13.03;;;;;;;;;;4996581;28;20417;-70
2023/03/04 04:42:25;;;;;;;19.30;12.30;;;;;;;;;;4996148;28;20957;-71
2023/03/04 04:44:51;;;;;;;24.83;14.13;;;;;;;;;;4996506;28;20425;-70
2023/03/04 04:47:17;;;;;;;28.97;16.97;;;;;;;;;;4996372;28;20484;-70
2023/03/04 04:49:43;;;;;;;36.87;19.30;;;;;;;;;;4996592;28;20417;-70
2023/03/04 04:52:09;;;;;;;36.03;18.57;;;;;;;;;;4996322;28;20417;-71
2023/03/04 04:54:35;;;;;;;32.67;16.60;;;;;;;;;;4996309;28;20421;-70
2023/03/04 04:57:01;;;;;;;23.53;15.23;;;;;;;;;;4996358;28;20431;-70
2023/03/04 04:59:27;;;;;;;20.80;14.60;;;;;;;;;;4995896;28;20500;-71
2023/03/04 05:01:53;;;;;;;21.93;14.07;;;;;;;;;;4995721;28;20443;-70
2023/03/04 05:04:19;;;;;;;21.50;13.47;;;;;;;;;;4995897;28;20849;-71
2023/03/04 05:06:45;;;;;;;22.77;13.73;;;;;;;;;;4996051;28;20485;-70
2023/03/04 05:09:12;;;;;;;20.97;13.73;;;;;;;;;;4996069;28;20471;-70
2023/03/04 05:11:38;;;;;;;21.50;13.37;;;;;;;;;;4995793;28;20426;-70
2023/03/04 05:14:04;;;;;;;23.57;12.90;;;;;;;;;;4995779;28;20413;-70
2023/03/04 05:16:30;;;;;;;20.57;13.30;;;;;;;;;;4995645;28;20421;-70
2023/03/04 05:18:56;;;;;;;21.90;12.80;;;;;;;;;;4995828;28;20556;-70
2023/03/04 05:21:21;;;;;;;16.33;12.47;;;;;;;;;;4995543;28;20486;-70
2023/03/04 05:23:47;;;;;;;23.37;13.70;;;;;;;;;;4996341;28;20429;-70
2023/03/04 05:26:15;;;;;;;22.70;14.00;;;;;;;;;;4995687;28;20471;-70
2023/03/04 05:28:41;;;;;;;22.60;13.60;;;;;;;;;;4996039;28;20424;-70
2023/03/04 05:31:07;;;;;;;23.60;13.00;;;;;;;;;;4995320;28;20447;-70
2023/03/04 05:33:33;;;;;;;21.00;14.90;;;;;;;;;;4995398;28;21020;-70
2023/03/04 05:35:59;;;;;;;21.03;13.30;;;;;;;;;;4995218;28;20743;-70
2023/03/04 05:38:25;;;;;;;23.60;13.90;;;;;;;;;;4995491;28;20457;-70
2023/03/04 05:40:56;;;;;;;18.80;13.23;;;;;;;;;;4995070;28;20956;-69
2023/03/04 05:43:23;;;;;;;28.47;14.80;;;;;;;;;;4994944;28;20996;-70
2023/03/04 05:45:49;;;;;;;21.67;13.80;;;;;;;;;;4995233;28;20571;-70
2023/03/04 05:48:15;;;;;;;24.00;13.37;;;;;;;;;;4995351;28;20582;-70
2023/03/04 05:50:41;;;;;;;24.93;15.10;;;;;;;;;;4995033;28;20413;-71
2023/03/04 05:53:07;;;;;;;21.33;13.50;;;;;;;;;;4995315;28;20436;-71
2023/03/04 05:55:33;;;;;;;24.00;14.73;;;;;;;;;;4995103;28;21048;-71
2023/03/04 05:57:59;;;;;;;21.03;13.73;;;;;;;;;;4994863;28;20943;-71
2023/03/04 06:00:25;;;;;;;23.10;14.23;;;;;;;;;;4995044;28;20909;-71
2023/03/04 06:02:51;;;;;;;24.47;15.23;;;;;;;;;;4995260;28;20920;-71
2023/03/04 06:05:17;;;;;;;28.13;14.30;;;;;;;;;;4995149;28;20949;-71
2023/03/04 06:07:44;;;;;;;21.00;14.20;;;;;;;;;;4993860;28;20786;-71
2023/03/04 06:10:11;;;;;;;26.57;14.93;;;;;;;;;;4994681;28;20409;-71
2023/03/04 06:12:37;;;;;;;22.90;12.40;;;;;;;;;;4994812;28;20453;-71
2023/03/04 06:15:04;;;;;;;29.10;15.67;;;;;;;;;;4994201;28;20512;-70
2023/03/04 06:17:31;;;;;;;32.53;15.37;;;;;;;;;;4994420;28;20421;-71
2023/03/04 06:19:57;;;;;;;26.40;15.10;;;;;;;;;;4993197;28;20433;-71
2023/03/04 06:22:23;;;;;;;25.87;14.93;;;;;;;;;;4994349;28;20429;-71
2023/03/04 06:24:49;;;;;;;24.30;14.47;;;;;;;;;;4995484;28;20464;-72
2023/03/04 06:27:15;;;;;;;21.67;14.00;;;;;;;;;;4994169;28;20472;-71
2023/03/04 06:29:41;;;;;;;32.17;14.57;;;;;;;;;;4994149;28;20769;-71
2023/03/04 06:32:07;;;;;;;25.00;14.50;;;;;;;;;;4994530;28;20468;-71
2023/03/04 06:34:33;;;;;;;32.90;15.63;;;;;;;;;;4994118;28;20409;-71
2023/03/04 06:36:59;;;;;;;21.73;14.60;;;;;;;;;;4994028;28;20781;-71
2023/03/04 06:39:25;;;;;;;25.63;14.83;;;;;;;;;;4994003;28;20413;-71
2023/03/04 06:41:51;;;;;;;27.47;15.60;;;;;;;;;;4994407;28;20409;-71
2023/03/04 06:44:17;;;;;;;28.67;16.37;;;;;;;;;;4993838;28;20457;-71
2023/03/04 06:46:43;;;;;;;25.00;14.50;;;;;;;;;;4994459;28;20480;-71
2023/03/04 06:49:09;;;;;;;31.90;17.70;;;;;;;;;;4993794;28;20452;-71
2023/03/04 06:51:35;;;;;;;20.90;14.20;;;;;;;;;;4994232;28;20894;-71
2023/03/04 06:54:01;;;;;;;26.17;15.90;;;;;;;;;;4994222;28;20413;-71
2023/03/04 06:56:27;;;;;;;28.37;14.90;;;;;;;;;;4994017;28;20608;-70
2023/03/04 06:58:53;;;;;;;29.83;16.80;;;;;;;;;;4993815;28;20777;-70
2023/03/04 07:01:20;;;;;;;35.37;17.80;;;;;;;;;;4994136;28;20421;-70
2023/03/04 07:03:47;;;;;;;36.23;19.13;;;;;;;;;;4994024;28;20409;-72
2023/03/04 07:06:14;;;;;;;29.70;17.47;;;;;;;;;;4994175;28;20515;-71
2023/03/04 07:08:41;;;;;;;36.73;20.13;;;;;;;;;;4994213;28;20480;-71
2023/03/04 07:11:07;;;;;;;40.73;19.60;;;;;;;;;;4993391;28;20459;-71
2023/03/04 07:13:36;;;;;;;32.43;19.10;;;;;;;;;;4993575;28;20503;-71
2023/03/04 07:16:03;;;;;;;28.90;17.23;;;;;;;;;;4993364;28;20413;-71
2023/03/04 07:18:29;;;;;;;37.00;19.20;;;;;;;;;;4993601;28;20780;-71
2023/03/04 07:20:55;;;;;;;30.77;17.80;;;;;;;;;;4993671;28;20425;-71
2023/03/04 07:23:21;;;;;;;33.73;19.47;;;;;;;;;;4993587;28;20452;-71
2023/03/04 07:25:48;;;;;;;31.30;18.87;;;;;;;;;;4996138;28;20417;-71
2023/03/04 07:28:14;;;;;;;31.03;18.57;;;;;;;;;;4997822;28;20429;-70
2023/03/04 07:30:40;;;;;;;35.47;20.43;;;;;;;;;;4997613;28;20424;-71
2023/03/04 07:33:06;;;;;;;41.77;21.00;;;;;;;;;;4997250;28;20457;-71
2023/03/04 07:35:32;;;;;;;37.30;21.90;;;;;;;;;;4997282;28;20417;-70
2023/03/04 07:37:58;;;;;;;38.10;20.80;;;;;;;;;;4996207;28;21017;-70
2023/03/04 07:40:23;;;;;;;40.20;22.30;;;;;;;;;;4997492;28;20429;-70
2023/03/04 07:42:50;;;;;;;39.67;21.10;;;;;;;;;;4997081;28;20472;-69
2023/03/04 07:45:16;;;;;;;52.83;22.30;;;;;;;;;;4997261;28;20468;-70
2023/03/04 07:47:42;;;;;;;47.67;21.70;;;;;;;;;;4997101;28;20476;-71
2023/03/04 07:50:09;;;;;;;44.13;19.57;;;;;;;;;;4997313;28;20409;-70
2023/03/04 07:52:39;;;;;;;42.50;22.10;;;;;;;;;;4997265;28;20433;-71
2023/03/04 07:55:05;;;;;;;46.37;24.10;;;;;;;;;;4997084;28;20817;-71
2023/03/04 07:57:31;;;;;;;44.10;23.87;;;;;;;;;;4997420;28;20433;-71
2023/03/04 07:59:57;;;;;;;44.37;22.93;;;;;;;;;;4996959;28;20433;-70
2023/03/04 08:02:23;;;;;;;47.23;25.10;;;;;;;;;;4997264;28;20421;-71
2023/03/04 08:04:49;;;;;;;52.10;25.33;;;;;;;;;;4997176;28;20902;-71
2023/03/04 08:07:15;;;;;;;45.07;24.27;;;;;;;;;;4997132;28;20976;-71
2023/03/04 08:09:41;;;;;;;47.50;25.27;;;;;;;;;;4996000;28;20425;-71
2023/03/04 08:12:07;;;;;;;43.73;22.07;;;;;;;;;;4995548;28;20480;-71
2023/03/04 08:14:33;;;;;;;50.83;24.27;;;;;;;;;;4997045;28;20441;-71
2023/03/04 08:16:59;;;;;;;49.57;24.33;;;;;;;;;;4997401;28;20845;-71
2023/03/04 08:19:25;;;;;;;59.43;30.07;;;;;;;;;;4996862;28;20511;-71
2023/03/04 08:21:51;;;;;;;62.20;30.30;;;;;;;;;;4996589;28;20505;-71
2023/03/04 08:24:17;;;;;;;59.13;27.77;;;;;;;;;;4996794;28;20452;-72
2023/03/04 08:26:45;;;;;;;48.30;25.80;;;;;;;;;;4996345;28;20460;-71
2023/03/04 08:29:13;;;;;;;45.20;25.70;;;;;;;;;;4996408;28;20436;-72
2023/03/04 08:31:39;;;;;;;45.00;23.77;;;;;;;;;;4995083;28;20417;-72
2023/03/04 08:34:06;;;;;;;48.60;25.70;;;;;;;;;;4996550;28;20426;-71
2023/03/04 08:36:33;;;;;;;49.07;23.73;;;;;;;;;;4996176;28;20520;-71
2023/03/04 08:38:59;;;;;;;45.67;22.90;;;;;;;;;;4996196;28;20421;-71
2023/03/04 08:41:26;;;;;;;45.63;23.53;;;;;;;;;;4996256;28;20787;-71
2023/03/04 08:43:52;;;;;;;46.90;24.43;;;;;;;;;;4996200;28;20483;-71
2023/03/04 08:46:18;;;;;;;44.13;24.30;;;;;;;;;;4995100;28;21007;-71
2023/03/04 08:48:44;;;;;;;39.23;18.30;;;;;;;;;;4995055;28;20421;-72
2023/03/04 08:51:11;;;;;;;43.53;24.93;;;;;;;;;;4995748;28;20776;-71
2023/03/04 08:53:38;;;;;;;45.70;24.20;;;;;;;;;;4996343;28;20421;-71
2023/03/04 08:56:05;;;;;;;47.57;24.00;;;;;;;;;;4994665;28;20520;-72
2023/03/04 08:58:31;;;;;;;47.40;23.00;;;;;;;;;;4995897;28;20425;-71
2023/03/04 09:00:58;;;;;;;42.30;22.80;;;;;;;;;;4996019;28;20421;-71
2023/03/04 09:03:24;;;;;;;47.40;22.87;;;;;;;;;;4995821;28;20508;-72
2023/03/04 09:05:50;;;;;;;55.70;25.53;;;;;;;;;;4996002;28;20549;-72
2023/03/04 09:08:16;;;;;;;45.87;23.50;;;;;;;;;;4995843;28;20449;-72
2023/03/04 09:10:44;;;;;;;52.23;25.67;;;;;;;;;;4995626;28;20425;-72
2023/03/04 09:13:10;;;;;;;52.90;25.40;;;;;;;;;;4995940;28;20433;-72
2023/03/04 09:15:36;;;;;;;45.90;22.63;;;;;;;;;;4996239;28;20420;-72
2023/03/04 09:18:03;;;;;;;47.13;25.70;;;;;;;;;;4996220;28;20417;-72
2023/03/04 09:20:30;;;;;;;54.27;26.40;;;;;;;;;;4995768;28;20475;-72
2023/03/04 09:22:56;;;;;;;54.67;25.20;;;;;;;;;;4995560;28;20483;-71
2023/03/04 09:25:22;;;;;;;48.97;24.50;;;;;;;;;;4995199;28;20800;-71
2023/03/04 09:27:48;;;;;;;55.53;31.67;;;;;;;;;;4993206;28;20467;-72
2023/03/04 09:30:14;;;;;;;45.87;23.77;;;;;;;;;;4995236;28;20201;-71
2023/03/04 09:32:40;;;;;;;51.43;26.17;;;;;;;;;;4995760;28;20421;-73
2023/03/04 09:35:06;;;;;;;45.27;26.27;;;;;;;;;;4995340;28;20508;-74
2023/03/04 09:37:32;;;;;;;44.57;24.17;;;;;;;;;;4995294;28;20520;-72
2023/03/04 09:39:58;;;;;;;46.33;25.53;;;;;;;;;;4995111;28;20984;-71
2023/03/04 09:42:36;;;;;;;53.77;26.53;;;;;;;;;;4995297;28;20476;-71
2023/03/04 09:45:05;;;;;;;45.90;24.53;;;;;;;;;;4995475;28;20425;-71
2023/03/04 09:47:33;;;;;;;55.63;28.95;;;;;;;;;;4994431;28;20452;-63
2023/03/04 09:50:00;;;;;;;45.13;22.73;;;;;;;;;;4992883;28;20182;-73
2023/03/04 09:52:29;;;;;;;52.53;23.60;;;;;;;;;;4995287;28;20425;-72
2023/03/04 09:55:13;;;;;;;48.67;24.70;;;;;;;;;;4994997;28;20414;-72
2023/03/04 09:57:59;;;;;;;57.67;26.10;;;;;;;;;;4995285;28;20476;-72
2023/03/04 10:00:30;;;;;;;50.30;24.47;;;;;;;;;;4995042;28;20421;-72
2023/03/04 10:03:11;;;;;;;50.40;24.13;;;;;;;;;;4995135;28;20413;-71
2023/03/04 10:05:55;;;;;;;56.40;27.03;;;;;;;;;;4994704;28;20429;-71
2023/03/04 10:08:21;;;;;;;39.00;21.20;;;;;;;;;;4993674;28;20456;-71
2023/03/04 10:10:48;;;;;;;40.50;20.50;;;;;;;;;;4994657;28;20414;-72
2023/03/04 10:13:18;;;;;;;35.70;20.27;;;;;;;;;;4995202;28;20417;-72
2023/03/04 10:15:46;;;;;;;43.30;22.00;;;;;;;;;;4994515;28;20909;-71
2023/03/04 10:18:18;;;;;;;43.03;23.73;;;;;;;;;;4994726;28;20425;-72
2023/03/04 10:20:49;;;;;;;46.20;22.97;;;;;;;;;;4992778;28;20425;-71
2023/03/04 10:23:17;;;;;;;30.60;17.60;;;;;;;;;;4994680;28;20445;-71
2023/03/04 10:25:45;;;;;;;37.47;20.10;;;;;;;;;;4994411;28;20421;-72
2023/03/04 10:28:11;;;;;;;39.47;22.50;;;;;;;;;;4994497;28;20597;-71
2023/03/04 10:30:56;;;;;;;39.87;22.57;;;;;;;;;;4994300;28;20512;-74
2023/03/04 10:33:24;;;;;;;45.40;21.60;;;;;;;;;;4994484;28;20453;-74
2023/03/04 10:35:52;;;;;;;34.30;18.60;;;;;;;;;;4994441;28;20436;-73
2023/03/04 10:38:20;;;;;;;35.50;19.90;;;;;;;;;;4994112;28;20509;-74
2023/03/04 10:40:46;;;;;;;33.20;20.27;;;;;;;;;;4994189;28;20420;-74
2023/03/04 10:43:15;;;;;;;40.30;20.27;;;;;;;;;;4993740;28;20481;-74
2023/03/04 10:45:41;;;;;;;40.90;24.25;;;;;;;;;;4993859;28;20496;-74
2023/03/04 10:48:17;;;;;;;42.83;22.93;;;;;;;;;;4994342;28;20220;-75
2023/03/04 10:50:43;;;;;;;46.00;22.87;;;;;;;;;;4992729;28;21031;-74
2023/03/04 10:53:22;;;;;;;45.50;23.47;;;;;;;;;;4992615;28;20508;-74
2023/03/04 10:55:48;;;;;;;40.23;21.90;;;;;;;;;;4993963;28;20916;-74
2023/03/04 10:58:17;;;;;;;31.40;19.67;;;;;;;;;;4994096;28;20528;-74
2023/03/04 11:00:43;;;;;;;37.40;20.00;;;;;;;;;;4993630;28;20421;-74
2023/03/04 11:03:27;;;;;;;30.73;17.70;;;;;;;;;;4994223;28;20428;-74
2023/03/04 11:06:12;;;;;;;38.43;21.63;;;;;;;;;;4993762;28;20905;-73
2023/03/04 11:08:40;;;;;;;37.27;17.67;;;;;;;;;;4993802;28;20417;-74
2023/03/04 11:11:21;;;;;;;31.87;18.77;;;;;;;;;;4994030;28;20424;-75
2023/03/04 11:13:59;;;;;;;38.33;20.63;;;;;;;;;;4992710;28;20436;-74
2023/03/04 11:16:27;;;;;;;33.27;20.97;;;;;;;;;;4993729;28;20409;-74
2023/03/04 11:18:55;;;;;;;37.50;22.37;;;;;;;;;;4993658;28;20413;-74
2023/03/04 11:21:25;;;;;;;36.10;22.67;;;;;;;;;;4993562;28;20409;-74
2023/03/04 11:24:02;;;;;;;35.60;20.43;;;;;;;;;;4993976;28;20418;-74
2023/03/04 11:26:30;;;;;;;38.13;20.77;;;;;;;;;;4992271;28;20538;-75
2023/03/04 11:29:16;;;;;;;39.03;22.63;;;;;;;;;;4992289;28;20469;-74
2023/03/04 11:31:47;;;;;;;38.97;20.70;;;;;;;;;;4986434;28;20442;-74
2023/03/04 11:37:26;;;;;;;30.50;16.57;;;;;;;;;;4993876;28;20436;-74
2023/03/04 11:39:55;;;;;;;39.10;19.60;;;;;;;;;;4993492;28;20500;-74
2023/03/04 11:42:26;;;;;;;39.33;20.57;;;;;;;;;;4993488;28;20467;-74
2023/03/04 11:44:52;;;;;;;43.87;22.97;;;;;;;;;;4992213;28;20431;-73
2023/03/04 11:47:22;;;;;;;38.50;20.90;;;;;;;;;;4992218;28;20515;-74
2023/03/04 11:49:59;;;;;;;43.50;23.30;;;;;;;;;;4993369;28;20429;-72
2023/03/04 11:52:45;;;;;;;42.70;24.30;;;;;;;;;;4993745;28;20420;-73
2023/03/04 11:55:20;;;;;;;44.92;27.35;;;;;;;;;;4992140;28;20441;-74
2023/03/04 11:58:02;;;;;;;37.53;23.13;;;;;;;;;;4993439;28;20750;-74
2023/03/04 12:00:31;;;;;;;35.87;19.33;;;;;;;;;;4992095;28;20425;-74
2023/03/04 12:03:25;;;;;;;47.07;22.87;;;;;;;;;;4993329;28;20417;-74
2023/03/04 12:05:54;;;;;;;39.20;20.50;;;;;;;;;;4993961;28;20468;-74
2023/03/04 12:08:25;;;;;;;38.10;22.40;;;;;;;;;;4993161;28;20444;-74
2023/03/04 12:10:58;;;;;;;45.10;24.13;;;;;;;;;;4993506;28;20429;-74
2023/03/04 12:13:30;;;;;;;40.47;23.07;;;;;;;;;;4996083;28;20483;-74
2023/03/04 12:16:19;;;;;;;41.90;23.20;;;;;;;;;;4996956;28;20511;-74
2023/03/04 12:19:15;;;;;;;31.77;17.03;;;;;;;;;;4997015;28;20882;-74
2023/03/04 12:22:00;;;;;;;24.37;17.50;;;;;;;;;;4997019;28;20495;-74
2023/03/04 12:24:48;;;;;;;33.73;17.80;;;;;;;;;;4996657;28;20413;-74
2023/03/04 12:27:22;;;;;;;34.80;17.80;;;;;;;;;;4996817;28;20518;-74
2023/03/04 12:30:16;;;;;;;28.67;17.40;;;;;;;;;;4996828;28;20414;-74
2023/03/04 12:32:54;;;;;;;28.20;17.77;;;;;;;;;;4997113;28;20904;-74
2023/03/04 12:35:39;;;;;;;27.47;17.47;;;;;;;;;;4996488;28;20417;-74
2023/03/04 12:38:17;;;;;;;33.20;19.27;;;;;;;;;;4996352;28;20954;-75
2023/03/04 12:40:48;;;;;;;35.60;17.00;;;;;;;;;;4996527;28;20425;-74
2023/03/04 12:43:32;;;;;;;35.40;18.23;;;;;;;;;;4996247;28;20467;-74
2023/03/04 12:46:01;;;;;;;28.10;16.27;;;;;;;;;;4996412;28;20410;-74
2023/03/04 12:48:31;;;;;;;30.90;18.33;;;;;;;;;;4996451;28;20905;-74
2023/03/04 12:51:06;;;;;;;31.90;18.10;;;;;;;;;;4996214;28;20408;-74
2023/03/04 12:53:35;;;;;;;26.40;16.40;;;;;;;;;;4996408;28;20920;-73
2023/03/04 12:56:02;;;;;;;28.33;18.53;;;;;;;;;;4994765;28;20427;-74
2023/03/04 12:58:29;;;;;;;30.57;19.13;;;;;;;;;;4996022;28;20878;-74
2023/03/04 13:01:14;;;;;;;29.30;18.50;;;;;;;;;;4996003;28;20417;-74
2023/03/04 13:03:44;;;;;;;28.93;17.80;;;;;;;;;;4995918;28;20905;-74
2023/03/04 13:06:17;;;;;;;27.77;17.77;;;;;;;;;;4996272;28;20457;-74
2023/03/04 13:08:46;;;;;;;31.47;22.07;;;;;;;;;;4996604;28;20497;-74
2023/03/04 13:11:33;;;;;;;33.33;20.57;;;;;;;;;;4996039;28;20421;-74
2023/03/04 13:14:03;;;;;;;25.63;15.70;;;;;;;;;;4994350;28;20432;-74
2023/03/04 13:16:38;;;;;;;27.10;16.53;;;;;;;;;;4995745;28;20424;-74
2023/03/04 13:19:24;;;;;;;29.97;20.00;;;;;;;;;;4995629;28;20412;-74
2023/03/04 13:21:53;;;;;;;33.40;19.23;;;;;;;;;;4995727;28;20411;-74
2023/03/04 13:27:41;;;;;;;22.90;14.73;;;;;;;;;;4995526;28;20896;-74
2023/03/04 13:30:27;;;;;;;31.87;18.80;;;;;;;;;;4994019;28;20456;-74
2023/03/04 13:32:53;;;;;;;32.33;19.90;;;;;;;;;;4993729;28;20421;-74
2023/03/04 13:35:38;;;;;;;31.30;19.10;;;;;;;;;;4995037;28;20781;-72
2023/03/04 13:38:20;;;;;;;32.80;18.87;;;;;;;;;;4995181;28;20452;-72
2023/03/04 13:41:05;;;;;;;31.53;19.30;;;;;;;;;;4994972;28;20904;-74
2023/03/04 13:43:40;;;;;;;26.83;18.17;;;;;;;;;;4994761;28;20501;-74
2023/03/04 13:46:18;;;;;;;32.07;19.87;;;;;;;;;;4995195;28;20548;-74
2023/03/04 13:48:50;;;;;;;32.43;20.93;;;;;;;;;;4994962;28;20901;-74
2023/03/04 13:51:26;;;;;;;31.80;19.73;;;;;;;;;;4995321;28;20488;-74
2023/03/04 13:57:15;;;;;;;34.50;20.63;;;;;;;;;;4995005;28;20907;-74
2023/03/04 13:59:42;;;;;;;27.23;16.60;;;;;;;;;;4994831;28;20586;-74
2023/03/04 14:02:14;;;;;;;32.43;22.17;;;;;;;;;;4995056;28;20468;-74
2023/03/04 14:04:44;;;;;;;35.77;23.73;;;;;;;;;;4994724;28;20745;-74
2023/03/04 14:07:18;;;;;;;37.47;20.20;;;;;;;;;;4994398;28;20488;-74
2023/03/04 14:09:53;;;;;;;34.30;20.93;;;;;;;;;;4994711;28;20424;-74
2023/03/04 14:12:19;;;;;;;34.97;22.13;;;;;;;;;;4994976;28;20761;-74
2023/03/04 14:14:48;;;;;;;35.70;20.67;;;;;;;;;;4994623;28;20984;-74
2023/03/04 14:17:17;;;;;;;37.87;20.30;;;;;;;;;;4993567;28;20985;-74
2023/03/04 14:19:44;;;;;;;39.20;23.40;;;;;;;;;;4994702;28;20421;-74
2023/03/04 14:22:29;;;;;;;42.97;23.70;;;;;;;;;;4994416;28;20893;-73
2023/03/04 14:24:56;;;;;;;40.40;24.33;;;;;;;;;;4994585;28;20425;-74
2023/03/04 14:27:22;;;;;;;37.50;22.70;;;;;;;;;;4994520;28;20476;-74
2023/03/04 14:29:54;;;;;;;38.03;22.20;;;;;;;;;;4994200;28;20785;-74
2023/03/04 14:32:20;;;;;;;40.63;21.50;;;;;;;;;;4994995;28;20952;-74
2023/03/04 14:34:49;;;;;;;33.60;19.43;;;;;;;;;;4992450;28;20426;-74